Bath, United Kingdom
Current Conditions -  °F | °C
As of 4:50 PM on Friday 21 Nov 2014 (Local Time) from EGGD Reporting Station
Light Rain Light Rain  
Wind Chill: 43°   Ceiling: 700
Heat Index: 48°   Visibility: 1.2mi
Dew Point: 46°   Wind: 14mph
Humidity: 93%   Direction: 100°E
Pressure: 29.88"   Gusts: NA
Location:  51.38°N, 2.36°W
Report Text: EGGD 211650Z 10012KT 2000 -RA BR SCT003 BKN007 09/08 Q1012 RERA
Loading
Personal Weather Stations






























Interactive Weather Map New forecast layout! Learn more

10-Day Weather Forecast

Advertisements
Track Severe Weather on mobile